Time;durP1;ratioP1;P1;durP2;ratioP2;P2;SDS_P1;SDS_P2;PMS_P1;PMS_P2;Temp;Humidity;BMP_temperature;BMP_pressure;BME280_temperature;BME280_humidity;BME280_pressure;Samples;Min_cycle;Max_cycle;Signal;HPM_P1;HPM_P2
2024/01/16 06:00:04;;;;;;;6.10;4.60;;;;;;;;;;1737008;28;20407;-84
2024/01/16 06:00:55;;;;;;;6.07;4.82;;;;;;;;;;1737344;28;20446;-83
2024/01/16 06:01:46;;;;;;;5.75;4.88;;;;;;;;;;1737035;28;20211;-84
2024/01/16 06:02:38;;;;;;;8.52;4.63;;;;;;;;;;1737393;28;20215;-83
2024/01/16 06:03:29;;;;;;;5.32;4.30;;;;;;;;;;1737345;28;20207;-83
2024/01/16 06:04:20;;;;;;;4.85;4.05;;;;;;;;;;1737327;28;20610;-83
2024/01/16 06:05:13;;;;;;;5.53;4.15;;;;;;;;;;1737004;28;20657;-83
2024/01/16 06:06:04;;;;;;;5.85;4.68;;;;;;;;;;1737639;28;20211;-84
2024/01/16 06:06:55;;;;;;;5.45;4.20;;;;;;;;;;1737003;28;20188;-83
2024/01/16 06:07:47;;;;;;;4.95;4.45;;;;;;;;;;1737112;28;20211;-85
2024/01/16 06:08:38;;;;;;;5.50;4.20;;;;;;;;;;1737754;28;20208;-85
2024/01/16 06:09:29;;;;;;;4.93;4.43;;;;;;;;;;1737260;28;20261;-83
2024/01/16 06:10:22;;;;;;;5.22;4.35;;;;;;;;;;1737174;28;20196;-83
2024/01/16 06:11:13;;;;;;;5.65;4.65;;;;;;;;;;1736974;28;20233;-82
2024/01/16 06:12:04;;;;;;;4.72;4.22;;;;;;;;;;1735656;28;20764;-79
2024/01/16 06:12:56;;;;;;;5.80;5.20;;;;;;;;;;1735531;28;20200;-78
2024/01/16 06:13:47;;;;;;;6.78;4.85;;;;;;;;;;1735374;28;20204;-78
2024/01/16 06:14:38;;;;;;;6.10;5.50;;;;;;;;;;1735391;28;20613;-79
2024/01/16 06:15:33;;;;;;;6.47;5.38;;;;;;;;;;1735437;28;20211;-78
2024/01/16 06:16:24;;;;;;;5.70;4.80;;;;;;;;;;1735339;28;20215;-78
2024/01/16 06:17:16;;;;;;;5.38;4.40;;;;;;;;;;1735481;28;20202;-78
2024/01/16 06:18:08;;;;;;;5.47;4.60;;;;;;;;;;1735385;28;20211;-79
2024/01/16 06:19:00;;;;;;;5.25;4.75;;;;;;;;;;1735156;28;20195;-79
2024/01/16 06:19:51;;;;;;;5.35;4.15;;;;;;;;;;1734899;28;20207;-79
2024/01/16 06:20:44;;;;;;;4.97;4.47;;;;;;;;;;1735039;28;20200;-79
2024/01/16 06:21:35;;;;;;;5.28;4.65;;;;;;;;;;1734680;28;20219;-82
2024/01/16 06:22:26;;;;;;;5.30;4.80;;;;;;;;;;1735017;28;20220;-82
2024/01/16 06:23:18;;;;;;;6.45;4.18;;;;;;;;;;1735255;28;20219;-80
2024/01/16 06:24:11;;;;;;;6.20;4.93;;;;;;;;;;1736480;28;20196;-81
2024/01/16 06:25:02;;;;;;;5.65;4.20;;;;;;;;;;1735854;28;20230;-82
2024/01/16 06:25:54;;;;;;;5.85;4.95;;;;;;;;;;1736625;28;20191;-82
2024/01/16 06:26:45;;;;;;;5.43;4.70;;;;;;;;;;1736721;28;20208;-82
2024/01/16 06:27:36;;;;;;;6.65;5.20;;;;;;;;;;1736738;28;20195;-82
2024/01/16 06:28:28;;;;;;;5.88;4.80;;;;;;;;;;1736292;28;20196;-82
2024/01/16 06:29:19;;;;;;;4.80;4.30;;;;;;;;;;1737172;28;20200;-82
2024/01/16 06:30:12;;;;;;;8.70;4.80;;;;;;;;;;1732286;28;20191;-82
2024/01/16 06:31:05;;;;;;;5.68;5.07;;;;;;;;;;1734060;28;20693;-82
2024/01/16 06:31:57;;;;;;;7.18;4.80;;;;;;;;;;1736878;28;20214;-83
2024/01/16 06:32:48;;;;;;;5.35;4.47;;;;;;;;;;1736126;28;20203;-82
2024/01/16 06:33:40;;;;;;;5.50;4.80;;;;;;;;;;1736574;28;20199;-82
2024/01/16 06:34:32;;;;;;;5.95;4.55;;;;;;;;;;1736478;28;20200;-82
2024/01/16 06:35:24;;;;;;;7.43;5.10;;;;;;;;;;1736827;28;20257;-82
2024/01/16 06:36:16;;;;;;;6.00;4.90;;;;;;;;;;1736612;28;20200;-82
2024/01/16 06:37:08;;;;;;;5.63;4.35;;;;;;;;;;1736983;28;20195;-83
2024/01/16 06:38:00;;;;;;;5.03;4.45;;;;;;;;;;1736741;28;20212;-82
2024/01/16 06:38:51;;;;;;;5.78;4.72;;;;;;;;;;1736719;28;20206;-82
2024/01/16 06:39:43;;;;;;;4.35;3.95;;;;;;;;;;1736139;28;20203;-82
2024/01/16 06:40:34;;;;;;;6.47;4.80;;;;;;;;;;1736797;28;20611;-83
2024/01/16 06:41:25;;;;;;;7.95;4.43;;;;;;;;;;1736520;28;20263;-83
2024/01/16 06:42:17;;;;;;;4.75;4.05;;;;;;;;;;1736530;28;20246;-83
2024/01/16 06:43:08;;;;;;;5.72;4.40;;;;;;;;;;1736619;28;20212;-82
2024/01/16 06:43:59;;;;;;;5.57;4.50;;;;;;;;;;1736808;28;20734;-83
2024/01/16 06:44:52;;;;;;;5.38;4.15;;;;;;;;;;1736411;28;20200;-83
2024/01/16 06:45:43;;;;;;;4.93;4.45;;;;;;;;;;1736569;28;20570;-83
2024/01/16 06:46:36;;;;;;;6.22;4.30;;;;;;;;;;1736787;28;20200;-83
2024/01/16 06:47:27;;;;;;;7.22;4.63;;;;;;;;;;1736854;28;20214;-84
2024/01/16 06:48:18;;;;;;;7.55;4.35;;;;;;;;;;1736318;28;20672;-83
2024/01/16 06:49:10;;;;;;;5.43;4.93;;;;;;;;;;1735504;28;20202;-84
2024/01/16 06:50:03;;;;;;;7.07;4.90;;;;;;;;;;1735967;28;20203;-83
2024/01/16 06:50:54;;;;;;;6.53;4.53;;;;;;;;;;1728441;28;20231;-83
2024/01/16 06:51:46;;;;;;;5.43;4.03;;;;;;;;;;1728263;28;20193;-83
2024/01/16 06:52:37;;;;;;;5.25;4.30;;;;;;;;;;1733862;28;20215;-83
2024/01/16 06:53:29;;;;;;;5.47;4.68;;;;;;;;;;1736092;28;20203;-82
2024/01/16 06:54:21;;;;;;;5.75;5.13;;;;;;;;;;1736336;28;20204;-82
2024/01/16 06:55:12;;;;;;;5.30;4.75;;;;;;;;;;1729611;28;20204;-82
2024/01/16 06:56:04;;;;;;;5.70;4.95;;;;;;;;;;1729541;28;20205;-82
2024/01/16 06:56:56;;;;;;;5.95;4.80;;;;;;;;;;1729375;28;20220;-82
2024/01/16 06:57:47;;;;;;;6.00;4.55;;;;;;;;;;1729362;28;20209;-82
2024/01/16 06:58:41;;;;;;;6.28;5.07;;;;;;;;;;1733216;28;20207;-81
2024/01/16 06:59:32;;;;;;;6.50;5.05;;;;;;;;;;1736065;28;20204;-80
2024/01/16 07:00:25;;;;;;;5.53;5.00;;;;;;;;;;1736227;28;20288;-80
2024/01/16 07:01:17;;;;;;;5.20;4.63;;;;;;;;;;1737496;28;20901;-79
2024/01/16 07:02:09;;;;;;;5.78;4.80;;;;;;;;;;1732563;28;20200;-80
2024/01/16 07:03:02;;;;;;;6.05;5.10;;;;;;;;;;1737069;28;20204;-81
2024/01/16 07:03:53;;;;;;;5.70;5.10;;;;;;;;;;1736910;28;20772;-81
2024/01/16 07:04:45;;;;;;;6.43;5.18;;;;;;;;;;1735593;28;20196;-83
2024/01/16 07:05:37;;;;;;;8.95;4.55;;;;;;;;;;1736511;28;20204;-83
2024/01/16 07:06:29;;;;;;;6.55;4.93;;;;;;;;;;1736392;28;20279;-83
2024/01/16 07:07:20;;;;;;;5.95;4.88;;;;;;;;;;1736747;28;20200;-82
2024/01/16 07:08:11;;;;;;;5.13;4.63;;;;;;;;;;1736046;28;20200;-83
2024/01/16 07:09:05;;;;;;;5.78;5.22;;;;;;;;;;1736280;28;20200;-83
2024/01/16 07:09:56;;;;;;;6.18;4.55;;;;;;;;;;1735765;28;20207;-83
2024/01/16 07:10:47;;;;;;;4.85;4.38;;;;;;;;;;1736607;28;20686;-83
2024/01/16 07:11:42;;;;;;;5.38;4.50;;;;;;;;;;1736551;28;20203;-81
2024/01/16 07:12:33;;;;;;;5.80;4.68;;;;;;;;;;1736772;28;20226;-81
2024/01/16 07:13:24;;;;;;;4.75;4.03;;;;;;;;;;1735208;28;20199;-84
2024/01/16 07:14:16;;;;;;;7.18;4.70;;;;;;;;;;1735075;28;20199;-84
2024/01/16 07:15:07;;;;;;;5.47;4.93;;;;;;;;;;1735227;28;20219;-84
2024/01/16 07:15:59;;;;;;;5.65;4.03;;;;;;;;;;1735168;28;20252;-83
2024/01/16 07:16:51;;;;;;;5.78;4.45;;;;;;;;;;1735473;28;20200;-84
2024/01/16 07:17:43;;;;;;;5.00;4.50;;;;;;;;;;1735403;28;20212;-83
2024/01/16 07:18:34;;;;;;;7.20;4.88;;;;;;;;;;1735080;28;20208;-84
2024/01/16 07:19:26;;;;;;;5.25;4.57;;;;;;;;;;1735112;28;20200;-84
2024/01/16 07:20:17;;;;;;;5.03;3.90;;;;;;;;;;1734585;28;20200;-83
2024/01/16 07:21:16;;;;;;;6.70;4.10;;;;;;;;;;1734952;28;20222;-83
2024/01/16 07:22:08;;;;;;;5.80;4.55;;;;;;;;;;1735400;28;20204;-83
2024/01/16 07:23:00;;;;;;;5.40;4.35;;;;;;;;;;1735266;28;20211;-83
2024/01/16 07:23:51;;;;;;;5.18;4.10;;;;;;;;;;1735127;28;20319;-84
2024/01/16 07:24:43;;;;;;;6.63;4.05;;;;;;;;;;1735061;28;20616;-83
2024/01/16 07:25:34;;;;;;;6.10;4.50;;;;;;;;;;1735134;28;20215;-83
2024/01/16 07:26:25;;;;;;;5.40;4.40;;;;;;;;;;1735126;28;20255;-83
2024/01/16 07:27:17;;;;;;;4.75;4.15;;;;;;;;;;1734963;28;20239;-83
2024/01/16 07:28:08;;;;;;;4.85;4.32;;;;;;;;;;1735096;28;20203;-84
2024/01/16 07:28:59;;;;;;;5.80;4.00;;;;;;;;;;1735597;28;20298;-81
2024/01/16 07:29:51;;;;;;;5.55;4.47;;;;;;;;;;1735214;28;20615;-82
2024/01/16 07:30:43;;;;;;;8.57;5.25;;;;;;;;;;1734342;28;20573;-81
2024/01/16 07:31:34;;;;;;;8.95;4.40;;;;;;;;;;1738120;28;20199;-82
2024/01/16 07:32:26;;;;;;;5.82;4.10;;;;;;;;;;1735287;28;20221;-81
2024/01/16 07:33:18;;;;;;;6.00;4.00;;;;;;;;;;1735234;28;20609;-81
2024/01/16 07:34:09;;;;;;;4.45;4.03;;;;;;;;;;1736256;28;20211;-82
2024/01/16 07:35:01;;;;;;;5.10;4.05;;;;;;;;;;1736036;28;20204;-82
2024/01/16 07:35:53;;;;;;;5.25;4.75;;;;;;;;;;1737031;28;20239;-82
2024/01/16 07:36:45;;;;;;;4.53;3.80;;;;;;;;;;1736941;28;20211;-82
2024/01/16 07:37:36;;;;;;;7.30;4.20;;;;;;;;;;1737542;28;20210;-82
2024/01/16 07:38:27;;;;;;;4.18;3.78;;;;;;;;;;1737474;28;20211;-81
2024/01/16 07:39:19;;;;;;;5.30;4.35;;;;;;;;;;1737510;28;20210;-81
2024/01/16 07:40:12;;;;;;;7.72;4.50;;;;;;;;;;1737028;28;20211;-82
2024/01/16 07:41:03;;;;;;;4.45;3.75;;;;;;;;;;1737907;28;20223;-81
2024/01/16 07:41:55;;;;;;;5.25;3.92;;;;;;;;;;1737158;28;20220;-82
2024/01/16 07:42:46;;;;;;;5.15;3.83;;;;;;;;;;1737883;28;20207;-82
2024/01/16 07:43:37;;;;;;;5.22;4.65;;;;;;;;;;1737788;28;20200;-82
2024/01/16 07:44:29;;;;;;;5.03;4.07;;;;;;;;;;1736802;28;20203;-82
2024/01/16 07:45:20;;;;;;;4.78;3.97;;;;;;;;;;1736929;28;20211;-81
2024/01/16 07:46:11;;;;;;;4.38;3.95;;;;;;;;;;1736707;28;20206;-81
2024/01/16 07:47:04;;;;;;;6.05;4.55;;;;;;;;;;1737564;28;20204;-82
2024/01/16 07:47:55;;;;;;;4.65;3.80;;;;;;;;;;1738019;28;20784;-82
2024/01/16 07:48:47;;;;;;;5.00;4.50;;;;;;;;;;1736979;28;20199;-81
2024/01/16 07:49:39;;;;;;;5.82;4.70;;;;;;;;;;1736235;28;21405;-81
2024/01/16 07:50:30;;;;;;;5.20;3.90;;;;;;;;;;1735046;28;20585;-82
2024/01/16 07:51:22;;;;;;;4.88;3.85;;;;;;;;;;1736408;28;20269;-81
2024/01/16 07:52:14;;;;;;;4.95;4.45;;;;;;;;;;1734757;28;20267;-83
2024/01/16 07:53:05;;;;;;;5.38;4.25;;;;;;;;;;1737275;28;20203;-81
2024/01/16 07:54:05;;;;;;;5.55;4.05;;;;;;;;;;1738450;28;20668;-81
2024/01/16 07:54:57;;;;;;;5.90;4.60;;;;;;;;;;1737917;28;20188;-81
2024/01/16 07:55:49;;;;;;;6.95;4.18;;;;;;;;;;1736856;28;20204;-82
2024/01/16 07:56:40;;;;;;;6.28;4.72;;;;;;;;;;1738389;28;20207;-81
2024/01/16 07:57:32;;;;;;;4.68;4.15;;;;;;;;;;1738348;28;20200;-81
2024/01/16 07:58:23;;;;;;;7.32;5.03;;;;;;;;;;1738463;28;20204;-81
2024/01/16 07:59:15;;;;;;;5.60;3.75;;;;;;;;;;1737844;28;20219;-81
2024/01/16 08:00:11;;;;;;;4.60;4.10;;;;;;;;;;1738039;28;20210;-82
2024/01/16 08:01:02;;;;;;;4.70;3.88;;;;;;;;;;1736833;28;20220;-83
2024/01/16 08:01:54;;;;;;;6.18;3.92;;;;;;;;;;1738963;28;20234;-83
2024/01/16 08:02:45;;;;;;;5.10;3.70;;;;;;;;;;1738248;28;20208;-82
2024/01/16 08:03:37;;;;;;;7.30;4.38;;;;;;;;;;1737958;28;20211;-83
2024/01/16 08:04:30;;;;;;;5.57;4.13;;;;;;;;;;1737172;28;20235;-82
2024/01/16 08:05:25;;;;;;;4.90;4.50;;;;;;;;;;1735646;28;20211;-83
2024/01/16 08:06:16;;;;;;;6.10;4.20;;;;;;;;;;1736823;28;20180;-81
2024/01/16 08:07:08;;;;;;;5.55;4.30;;;;;;;;;;1737268;28;20227;-81
2024/01/16 08:08:00;;;;;;;5.35;4.43;;;;;;;;;;1738572;28;20214;-80
2024/01/16 08:08:51;;;;;;;5.57;3.95;;;;;;;;;;1735248;28;20219;-83
2024/01/16 08:09:43;;;;;;;6.82;4.50;;;;;;;;;;1734189;28;20249;-83
2024/01/16 08:10:34;;;;;;;4.95;4.05;;;;;;;;;;1737749;28;20203;-82
2024/01/16 08:11:26;;;;;;;4.93;4.43;;;;;;;;;;1730240;28;20220;-82
2024/01/16 08:12:17;;;;;;;5.07;3.85;;;;;;;;;;1736841;28;20196;-82
2024/01/16 08:13:09;;;;;;;6.88;3.95;;;;;;;;;;1737113;28;20200;-82
2024/01/16 08:14:00;;;;;;;4.88;4.30;;;;;;;;;;1737918;28;20195;-82
2024/01/16 08:14:52;;;;;;;5.32;4.30;;;;;;;;;;1736941;28;20230;-82
2024/01/16 08:15:43;;;;;;;5.25;4.22;;;;;;;;;;1737430;28;20208;-82
2024/01/16 08:16:34;;;;;;;4.13;3.72;;;;;;;;;;1736613;28;20275;-82
2024/01/16 08:17:26;;;;;;;4.65;3.85;;;;;;;;;;1736929;28;20624;-82
2024/01/16 08:18:17;;;;;;;4.75;4.35;;;;;;;;;;1737011;28;20208;-82
2024/01/16 08:19:09;;;;;;;4.15;3.72;;;;;;;;;;1737204;28;20684;-83
2024/01/16 08:20:03;;;;;;;5.30;4.45;;;;;;;;;;1736445;28;20207;-83
2024/01/16 08:20:55;;;;;;;5.65;4.13;;;;;;;;;;1736377;28;20229;-81
2024/01/16 08:21:46;;;;;;;4.72;4.15;;;;;;;;;;1734173;28;20268;-81
2024/01/16 08:22:37;;;;;;;5.22;4.57;;;;;;;;;;1734387;28;20215;-82
2024/01/16 08:23:29;;;;;;;6.35;4.30;;;;;;;;;;1736846;28;20203;-83
2024/01/16 08:24:21;;;;;;;5.22;4.13;;;;;;;;;;1736394;28;20207;-83
2024/01/16 08:25:12;;;;;;;8.18;4.25;;;;;;;;;;1736441;28;20202;-82
2024/01/16 08:26:04;;;;;;;4.40;3.67;;;;;;;;;;1736353;28;20656;-82
2024/01/16 08:26:57;;;;;;;5.50;4.40;;;;;;;;;;1736277;28;20575;-82
2024/01/16 08:27:48;;;;;;;4.47;4.00;;;;;;;;;;1736509;28;20200;-82
2024/01/16 08:28:40;;;;;;;4.13;3.53;;;;;;;;;;1737022;28;20195;-83
2024/01/16 08:29:31;;;;;;;5.20;4.05;;;;;;;;;;1737158;28;20207;-82
2024/01/16 08:30:23;;;;;;;6.57;4.18;;;;;;;;;;1734815;28;20306;-82
2024/01/16 08:31:17;;;;;;;6.30;3.90;;;;;;;;;;1735385;28;20230;-82
2024/01/16 08:32:08;;;;;;;4.47;3.92;;;;;;;;;;1733973;28;20189;-83
2024/01/16 08:33:00;;;;;;;4.30;3.90;;;;;;;;;;1736169;28;20223;-82
2024/01/16 08:33:51;;;;;;;4.10;3.70;;;;;;;;;;1736233;28;20211;-82
2024/01/16 08:34:43;;;;;;;6.30;3.92;;;;;;;;;;1736272;28;20204;-81
2024/01/16 08:35:36;;;;;;;6.03;4.20;;;;;;;;;;1736543;28;20200;-81
2024/01/16 08:36:27;;;;;;;4.43;4.03;;;;;;;;;;1736744;28;20203;-82
2024/01/16 08:37:18;;;;;;;4.70;4.22;;;;;;;;;;1736300;28;20208;-82
2024/01/16 08:38:10;;;;;;;4.60;4.18;;;;;;;;;;1735948;28;20206;-82
2024/01/16 08:39:01;;;;;;;4.88;3.70;;;;;;;;;;1736989;28;20204;-82
2024/01/16 08:39:53;;;;;;;4.10;3.70;;;;;;;;;;1735775;28;20230;-82
2024/01/16 08:40:44;;;;;;;5.95;4.18;;;;;;;;;;1735783;28;20622;-82
2024/01/16 08:41:36;;;;;;;5.03;4.00;;;;;;;;;;1736277;28;20204;-83
2024/01/16 08:42:27;;;;;;;5.53;4.00;;;;;;;;;;1735204;28;20227;-81
2024/01/16 08:43:19;;;;;;;4.80;4.30;;;;;;;;;;1734750;28;20216;-82
2024/01/16 08:44:11;;;;;;;6.10;3.78;;;;;;;;;;1738073;28;20563;-83
2024/01/16 08:45:02;;;;;;;3.90;3.28;;;;;;;;;;1739720;28;20692;-84
2024/01/16 08:45:53;;;;;;;5.72;4.05;;;;;;;;;;1739127;28;20250;-83
2024/01/16 08:46:46;;;;;;;4.07;3.67;;;;;;;;;;1738420;28;20265;-82
2024/01/16 08:47:37;;;;;;;4.07;3.58;;;;;;;;;;1731425;28;20197;-83
2024/01/16 08:48:28;;;;;;;4.30;3.63;;;;;;;;;;1730459;28;20200;-83
2024/01/16 08:49:20;;;;;;;4.85;4.20;;;;;;;;;;1735242;28;20215;-83
2024/01/16 08:50:11;;;;;;;4.53;3.88;;;;;;;;;;1735442;28;20577;-84
2024/01/16 08:51:07;;;;;;;3.55;3.25;;;;;;;;;;1733906;28;20231;-83
2024/01/16 08:51:58;;;;;;;4.97;3.55;;;;;;;;;;1738216;28;20567;-84
2024/01/16 08:52:50;;;;;;;5.82;4.00;;;;;;;;;;1737286;28;20207;-83
2024/01/16 08:53:42;;;;;;;4.80;3.58;;;;;;;;;;1737775;28;20257;-84
2024/01/16 08:54:33;;;;;;;4.47;3.92;;;;;;;;;;1738111;28;20258;-83
2024/01/16 08:55:25;;;;;;;5.68;4.05;;;;;;;;;;1737841;28;20204;-83
2024/01/16 08:56:17;;;;;;;3.78;3.47;;;;;;;;;;1737985;28;20206;-83
2024/01/16 08:57:10;;;;;;;4.07;3.35;;;;;;;;;;1730547;28;20228;-82
2024/01/16 08:58:01;;;;;;;3.70;3.40;;;;;;;;;;1730810;28;20205;-82
2024/01/16 08:58:53;;;;;;;6.03;4.10;;;;;;;;;;1730022;28;20196;-83
2024/01/16 08:59:44;;;;;;;5.15;3.65;;;;;;;;;;1730129;28;20207;-83
2024/01/16 09:00:37;;;;;;;6.20;3.80;;;;;;;;;;1730517;28;20200;-83
2024/01/16 09:01:28;;;;;;;4.43;3.85;;;;;;;;;;1730074;28;20225;-84
2024/01/16 09:02:20;;;;;;;4.55;4.03;;;;;;;;;;1730166;28;20236;-84
2024/01/16 09:03:12;;;;;;;4.32;3.50;;;;;;;;;;1730909;28;20215;-83
2024/01/16 09:04:04;;;;;;;4.70;3.70;;;;;;;;;;1730201;28;20208;-85
2024/01/16 09:04:55;;;;;;;5.20;4.10;;;;;;;;;;1730634;28;20209;-84
2024/01/16 09:05:47;;;;;;;5.65;3.95;;;;;;;;;;1730236;28;20279;-83
2024/01/16 09:06:40;;;;;;;4.38;3.92;;;;;;;;;;1737313;28;20207;-84
2024/01/16 09:07:31;;;;;;;4.20;3.80;;;;;;;;;;1738068;28;20583;-84
2024/01/16 09:08:23;;;;;;;4.50;3.83;;;;;;;;;;1737802;28;20223;-82
2024/01/16 09:09:15;;;;;;;4.25;3.40;;;;;;;;;;1737539;28;20215;-84
2024/01/16 09:10:07;;;;;;;5.00;3.78;;;;;;;;;;1735976;28;20204;-83
2024/01/16 09:10:59;;;;;;;4.85;3.70;;;;;;;;;;1730270;28;20188;-79
2024/01/16 09:11:50;;;;;;;5.60;4.20;;;;;;;;;;1732715;28;20196;-80
2024/01/16 09:12:41;;;;;;;4.78;4.00;;;;;;;;;;1734782;28;20199;-82
2024/01/16 09:13:33;;;;;;;6.35;3.63;;;;;;;;;;1734522;28;20643;-83
2024/01/16 09:14:24;;;;;;;4.20;3.80;;;;;;;;;;1734595;28;20204;-81
2024/01/16 09:15:16;;;;;;;5.25;3.70;;;;;;;;;;1735092;28;20699;-81
2024/01/16 09:16:07;;;;;;;5.18;3.72;;;;;;;;;;1735456;28;20498;-83
2024/01/16 09:16:58;;;;;;;5.22;3.78;;;;;;;;;;1735115;28;20200;-81
2024/01/16 09:17:50;;;;;;;4.90;4.00;;;;;;;;;;1735231;28;20227;-81
2024/01/16 09:18:42;;;;;;;5.15;3.85;;;;;;;;;;1734720;28;20214;-81
2024/01/16 09:19:33;;;;;;;4.70;3.88;;;;;;;;;;1736177;28;20200;-81
2024/01/16 09:20:25;;;;;;;5.38;4.38;;;;;;;;;;1736271;28;20656;-81
2024/01/16 09:21:16;;;;;;;6.95;4.80;;;;;;;;;;1736353;28;20607;-81
2024/01/16 09:22:09;;;;;;;4.43;3.85;;;;;;;;;;1736656;28;20230;-81
2024/01/16 09:23:00;;;;;;;4.60;3.63;;;;;;;;;;1736273;28;20204;-81
2024/01/16 09:23:52;;;;;;;4.72;4.28;;;;;;;;;;1736384;28;20204;-81
2024/01/16 09:24:44;;;;;;;4.30;3.90;;;;;;;;;;1735957;28;20196;-81
2024/01/16 09:25:35;;;;;;;6.75;3.90;;;;;;;;;;1734885;28;20196;-81
2024/01/16 09:26:26;;;;;;;4.40;4.00;;;;;;;;;;1732372;28;20730;-81
2024/01/16 09:27:18;;;;;;;6.47;4.00;;;;;;;;;;1734949;28;20286;-81
2024/01/16 09:28:09;;;;;;;5.18;4.40;;;;;;;;;;1732163;28;20227;-81
2024/01/16 09:29:00;;;;;;;7.57;5.40;;;;;;;;;;1734688;28;20309;-81
2024/01/16 09:29:52;;;;;;;4.75;3.90;;;;;;;;;;1732882;28;20246;-81
2024/01/16 09:30:43;;;;;;;6.50;4.68;;;;;;;;;;1733346;28;20196;-81
2024/01/16 09:31:35;;;;;;;5.07;4.10;;;;;;;;;;1733436;28;20267;-81
2024/01/16 09:32:27;;;;;;;4.65;4.05;;;;;;;;;;1733666;28;20761;-81
2024/01/16 09:33:18;;;;;;;4.22;3.60;;;;;;;;;;1734721;28;20208;-81
2024/01/16 09:34:13;;;;;;;6.57;4.15;;;;;;;;;;1732445;28;20205;-81
2024/01/16 09:35:06;;;;;;;4.72;4.22;;;;;;;;;;1734263;28;20570;-81
2024/01/16 09:36:00;;;;;;;4.85;3.95;;;;;;;;;;1732353;28;20189;-81
2024/01/16 09:36:51;;;;;;;4.80;3.85;;;;;;;;;;1731227;28;20299;-81
2024/01/16 09:37:44;;;;;;;5.85;4.15;;;;;;;;;;1732701;28;20196;-81
2024/01/16 09:38:36;;;;;;;7.00;4.03;;;;;;;;;;1732359;28;20207;-81
2024/01/16 09:39:28;;;;;;;5.75;3.30;;;;;;;;;;1732682;28;20201;-81
2024/01/16 09:40:20;;;;;;;6.63;4.00;;;;;;;;;;1732331;28;20231;-82
2024/01/16 09:41:11;;;;;;;4.28;3.80;;;;;;;;;;1732356;28;20216;-81
2024/01/16 09:42:03;;;;;;;7.60;4.35;;;;;;;;;;1731355;28;20199;-81
2024/01/16 09:42:55;;;;;;;4.15;3.75;;;;;;;;;;1732632;28;20204;-81
2024/01/16 09:43:47;;;;;;;4.97;4.47;;;;;;;;;;1725270;28;20261;-81
2024/01/16 09:44:39;;;;;;;4.10;3.70;;;;;;;;;;1725847;28;20650;-81
2024/01/16 09:45:31;;;;;;;4.95;3.78;;;;;;;;;;1728995;28;20295;-81
2024/01/16 09:46:24;;;;;;;5.07;3.65;;;;;;;;;;1735416;28;20204;-81
2024/01/16 09:47:17;;;;;;;5.20;3.90;;;;;;;;;;1731682;28;20196;-81
2024/01/16 09:48:08;;;;;;;4.72;3.90;;;;;;;;;;1733678;28;20222;-81
2024/01/16 09:49:01;;;;;;;3.83;3.40;;;;;;;;;;1731140;28;20196;-81
2024/01/16 09:49:53;;;;;;;3.85;3.55;;;;;;;;;;1732608;28;20197;-81
2024/01/16 09:50:44;;;;;;;4.20;3.67;;;;;;;;;;1732373;28;20200;-81
2024/01/16 09:51:36;;;;;;;5.00;4.00;;;;;;;;;;1731991;28;20195;-81
2024/01/16 09:52:27;;;;;;;4.60;4.07;;;;;;;;;;1734692;28;20566;-81
2024/01/16 09:53:19;;;;;;;4.40;3.67;;;;;;;;;;1732460;28;20204;-81
2024/01/16 09:54:12;;;;;;;4.90;3.90;;;;;;;;;;1735107;28;20203;-81
2024/01/16 09:55:03;;;;;;;5.25;4.63;;;;;;;;;;1735372;28;20211;-81
2024/01/16 09:55:55;;;;;;;4.70;4.00;;;;;;;;;;1735353;28;20269;-81
2024/01/16 09:56:49;;;;;;;4.40;4.00;;;;;;;;;;1735461;28;20688;-81
2024/01/16 09:57:41;;;;;;;5.18;3.78;;;;;;;;;;1735331;28;20212;-81
2024/01/16 09:58:35;;;;;;;4.75;3.75;;;;;;;;;;1735399;28;20295;-81
2024/01/16 09:59:27;;;;;;;4.50;3.75;;;;;;;;;;1735371;28;20199;-81
2024/01/16 10:00:20;;;;;;;5.15;3.50;;;;;;;;;;1734867;28;20199;-81
2024/01/16 10:01:12;;;;;;;3.88;3.50;;;;;;;;;;1735154;28;20235;-81
2024/01/16 10:02:06;;;;;;;4.53;3.85;;;;;;;;;;1735309;28;20345;-81
2024/01/16 10:02:59;;;;;;;3.67;3.20;;;;;;;;;;1735372;28;20203;-81
2024/01/16 10:03:51;;;;;;;5.28;4.32;;;;;;;;;;1731731;28;20200;-81
2024/01/16 10:04:43;;;;;;;4.82;3.35;;;;;;;;;;1731058;28;20238;-81
2024/01/16 10:05:35;;;;;;;4.53;3.75;;;;;;;;;;1733020;28;20208;-81
2024/01/16 10:06:28;;;;;;;5.90;4.03;;;;;;;;;;1731970;28;20196;-81
2024/01/16 10:07:25;;;;;;;3.85;3.15;;;;;;;;;;1732714;28;20678;-81
2024/01/16 10:08:21;;;;;;;6.30;3.60;;;;;;;;;;1732226;28;20474;-81
2024/01/16 10:09:14;;;;;;;4.78;3.65;;;;;;;;;;1734111;28;20204;-81
2024/01/16 10:10:07;;;;;;;5.13;3.80;;;;;;;;;;1730976;28;20228;-81
2024/01/16 10:10:58;;;;;;;3.90;3.47;;;;;;;;;;1733737;28;20769;-81
2024/01/16 10:11:50;;;;;;;3.55;3.00;;;;;;;;;;1732643;28;20196;-81
2024/01/16 10:12:41;;;;;;;4.30;3.20;;;;;;;;;;1737949;28;21147;-81
2024/01/16 10:13:33;;;;;;;5.32;3.50;;;;;;;;;;1741208;28;20261;-81
2024/01/16 10:14:25;;;;;;;4.43;3.90;;;;;;;;;;1741616;28;20617;-81
2024/01/16 10:15:17;;;;;;;4.13;3.78;;;;;;;;;;1735077;28;20208;-81
2024/01/16 10:16:08;;;;;;;4.45;3.72;;;;;;;;;;1735044;28;20565;-81
2024/01/16 10:17:02;;;;;;;3.70;3.40;;;;;;;;;;1734944;28;20239;-81
2024/01/16 10:17:53;;;;;;;4.72;3.65;;;;;;;;;;1734773;28;20491;-81
2024/01/16 10:18:45;;;;;;;5.97;3.78;;;;;;;;;;1734664;28;20579;-82
2024/01/16 10:19:48;;;;;;;4.15;3.75;;;;;;;;;;1734651;28;20586;-81
2024/01/16 10:20:40;;;;;;;3.50;2.75;;;;;;;;;;1735257;28;20304;-81
2024/01/16 10:21:32;;;;;;;4.10;3.35;;;;;;;;;;1734981;28;20238;-81
2024/01/16 10:22:25;;;;;;;3.63;3.30;;;;;;;;;;1734576;28;20694;-81
2024/01/16 10:23:22;;;;;;;5.90;4.35;;;;;;;;;;1734141;28;20200;-81
2024/01/16 10:24:15;;;;;;;4.55;3.60;;;;;;;;;;1734749;28;20207;-81
2024/01/16 10:25:08;;;;;;;5.88;4.90;;;;;;;;;;1734985;28;20265;-81
2024/01/16 10:26:06;;;;;;;5.07;4.57;;;;;;;;;;1734863;28;20196;-81
2024/01/16 10:27:00;;;;;;;6.65;4.70;;;;;;;;;;1735174;28;20236;-82
2024/01/16 10:28:04;;;;;;;3.92;3.60;;;;;;;;;;1735560;28;20277;-83
2024/01/16 10:29:03;;;;;;;5.10;3.72;;;;;;;;;;1738523;28;20203;-81
2024/01/16 10:29:57;;;;;;;3.92;3.13;;;;;;;;;;1737095;28;20570;-82
2024/01/16 10:30:52;;;;;;;5.35;3.60;;;;;;;;;;1741029;28;20252;-82
2024/01/16 10:31:44;;;;;;;5.43;4.82;;;;;;;;;;1739322;28;20191;-82
2024/01/16 10:32:37;;;;;;;6.22;3.90;;;;;;;;;;1740171;28;20584;-81
2024/01/16 10:33:28;;;;;;;4.55;3.30;;;;;;;;;;1741113;28;20257;-82
2024/01/16 10:34:21;;;;;;;3.97;3.67;;;;;;;;;;1740580;28;20555;-81
2024/01/16 10:35:13;;;;;;;4.70;3.20;;;;;;;;;;1740507;28;20203;-82
2024/01/16 10:36:11;;;;;;;3.85;3.42;;;;;;;;;;1740129;28;20199;-82
2024/01/16 10:37:03;;;;;;;4.40;3.08;;;;;;;;;;1740966;28;20210;-81
2024/01/16 10:37:55;;;;;;;3.53;3.22;;;;;;;;;;1733103;28;20220;-81
2024/01/16 10:38:47;;;;;;;6.60;2.97;;;;;;;;;;1731715;28;20207;-82
2024/01/16 10:39:40;;;;;;;4.32;3.53;;;;;;;;;;1734578;28;20211;-81
2024/01/16 10:40:31;;;;;;;4.90;2.65;;;;;;;;;;1732467;28;20196;-81
2024/01/16 10:41:25;;;;;;;4.40;3.45;;;;;;;;;;1731936;28;20212;-81
2024/01/16 10:42:16;;;;;;;4.38;2.83;;;;;;;;;;1732501;28;20204;-81
2024/01/16 10:43:09;;;;;;;4.78;3.20;;;;;;;;;;1732361;28;20196;-81
2024/01/16 10:44:04;;;;;;;7.95;2.80;;;;;;;;;;1731911;28;20203;-81
2024/01/16 10:44:55;;;;;;;6.18;3.70;;;;;;;;;;1732875;28;20206;-82
2024/01/16 10:45:47;;;;;;;3.97;3.45;;;;;;;;;;1731750;28;20700;-81
2024/01/16 10:46:39;;;;;;;3.45;2.92;;;;;;;;;;1732031;28;20203;-81
2024/01/16 10:47:30;;;;;;;4.50;3.63;;;;;;;;;;1732552;28;20665;-81
2024/01/16 10:48:22;;;;;;;5.20;3.75;;;;;;;;;;1731142;28;20549;-82
2024/01/16 10:49:13;;;;;;;4.68;3.58;;;;;;;;;;1734737;28;20207;-81
2024/01/16 10:50:05;;;;;;;6.22;3.83;;;;;;;;;;1731285;28;20231;-81
2024/01/16 10:50:57;;;;;;;3.88;3.47;;;;;;;;;;1733194;28;20196;-81
2024/01/16 10:51:50;;;;;;;4.20;3.45;;;;;;;;;;1730976;28;20200;-82
2024/01/16 10:52:48;;;;;;;3.85;3.45;;;;;;;;;;1731294;28;20193;-82
2024/01/16 10:53:43;;;;;;;5.18;3.15;;;;;;;;;;1732123;28;20215;-82
2024/01/16 10:54:37;;;;;;;3.88;3.40;;;;;;;;;;1731130;28;20283;-81
2024/01/16 10:55:30;;;;;;;5.70;3.80;;;;;;;;;;1731315;28;20556;-81
2024/01/16 10:56:21;;;;;;;6.45;3.58;;;;;;;;;;1728637;28;20696;-81
2024/01/16 10:57:15;;;;;;;4.32;3.10;;;;;;;;;;1729732;28;20208;-81
2024/01/16 10:58:07;;;;;;;4.15;3.15;;;;;;;;;;1731489;28;20240;-81
2024/01/16 10:59:03;;;;;;;3.85;3.00;;;;;;;;;;1734663;28;20219;-81
2024/01/16 11:00:00;;;;;;;3.95;3.25;;;;;;;;;;1730482;28;20200;-81
2024/01/16 11:00:53;;;;;;;4.95;3.83;;;;;;;;;;1734173;28;20606;-82
2024/01/16 11:01:47;;;;;;;4.18;3.28;;;;;;;;;;1734351;28;20200;-82
2024/01/16 11:02:42;;;;;;;4.22;3.05;;;;;;;;;;1733614;28;20235;-81
2024/01/16 11:03:37;;;;;;;5.53;3.33;;;;;;;;;;1729089;28;20239;-82
2024/01/16 11:04:28;;;;;;;5.07;3.25;;;;;;;;;;1728064;28;20347;-81
2024/01/16 11:05:21;;;;;;;3.95;2.67;;;;;;;;;;1728025;28;20208;-81
2024/01/16 11:06:13;;;;;;;4.35;3.47;;;;;;;;;;1728373;28;20200;-82
2024/01/16 11:07:04;;;;;;;2.95;2.50;;;;;;;;;;1735056;28;20204;-81
2024/01/16 11:07:56;;;;;;;4.35;3.10;;;;;;;;;;1734914;28;20200;-81
2024/01/16 11:08:48;;;;;;;6.60;3.20;;;;;;;;;;1734626;28;20207;-81
2024/01/16 11:09:41;;;;;;;5.82;3.25;;;;;;;;;;1734144;28;20267;-81
2024/01/16 11:10:34;;;;;;;5.13;2.80;;;;;;;;;;1734902;28;20300;-81
2024/01/16 11:11:25;;;;;;;9.68;8.30;;;;;;;;;;1734645;28;20227;-81
2024/01/16 11:12:19;;;;;;;70.15;62.80;;;;;;;;;;1734898;28;20657;-82